SMZO

Zorg en Hoop Airport

Paramaribo, Suriname
TAF SMZO 210400Z 2106/2206 08004KT 9999 FEW010 TX30/2117Z TN24/2110Z PROB30 TEMPO 2109/2110 SCT006 FM211200 12008KT 9999 SCT015 TEMPO 2115/2122 VRB12G22KT 3000 SHRA FEW015CB BKN020 PROB40 2118/2121 2000 TSRA SCT015CB SCT018
Issued Valid From Valid To
Jun-21 @ 04:00 UTC
(6 hours ago)
Jun-21 @ 06:00 UTC
(4 hours ago)
Jun-22 @ 06:00 UTC
(in 20 hours)
Jun-21 @ 06:00 to Jun-21 @ 12:00
TAF SMZO 210400Z 2106/2206 08004KT 9999 FEW010 TX30/2117Z TN24/2110Z
Wind Visibility Clouds
80° at 4 knots 10,000+ meters
  • Few at 1,000' AGL
Expired Click to View Jun-21 @ 09:00 to Jun-21 @ 10:00
PROB30 TEMPO 2109/2110 SCT006
Clouds
  • Scattered at 600' AGL
From Jun-21 @ 12:00 to Jun-22 @ 06:00
FM211200 12008KT 9999 SCT015
Wind Visibility Clouds
120° at 8 knots 10,000+ meters
  • Scattered at 1,500' AGL
Temporary Jun-21 @ 15:00 to Jun-21 @ 22:00
TEMPO 2115/2122 VRB12G22KT 3000 SHRA FEW015CB BKN020
Wind Visibility Clouds Conditions
Variable at 12 knots
 Gusting to 22 knots
2,993 meters
  • Few at 1,500' AGL
  • Broken at 2,000' AGL
  • Rain
Probable  (Probability 40%) Jun-21 @ 18:00 to Jun-21 @ 21:00
PROB40 2118/2121 2000 TSRA SCT015CB SCT018
Visibility Clouds Conditions
1,996 meters
  • Scattered at 1,500' AGL
  • Scattered at 1,800' AGL
  • Thunderstorm
  • Rain
TAF SMZO 210400Z 2106/2206 08004KT 9999 FEW010 TX30/2117Z TN24/2110Z PROB30 TEMPO 2109/2110 SCT006 FM211200 12008KT 9999 SCT015 TEMPO 2115/2122 VRB12G22KT 3000 SHRA FEW015CB BKN020 PROB40 2118/2121 2000 TSRA SCT015CB SCT018
Issued Jun-21 @ 04:00 UTC
(6 hours ago)
Valid From Jun-21 @ 06:00 UTC
(4 hours ago)
Valid To Jun-22 @ 06:00 UTC
(in 20 hours)
Jun-21 @ 06:00 - Jun-21 @ 12:00
Wind Visibility
80° at 4 knots 10,000+ meters
Clouds
  • Few at 1,000' AGL
Jun-21 @ 09:00 - Jun-21 @ 10:00
Clouds
  • Scattered at 600' AGL
From Jun-21 @ 12:00 - Jun-22 @ 06:00
Wind Visibility
120° at 8 knots 10,000+ meters
Clouds
  • Scattered at 1,500' AGL
Temporary Jun-21 @ 15:00 - Jun-21 @ 22:00
Wind Visibility
Variable at 12 knots
 Gusting to 22 knots
2,993 meters
Clouds
  • Few at 1,500' AGL
  • Broken at 2,000' AGL
Conditions
  • Rain
Probability 40% Probable Jun-21 @ 18:00 - Jun-21 @ 21:00
Clouds
  • Scattered at 1,500' AGL
  • Scattered at 1,800' AGL
Conditions
  • Thunderstorm
  • Rain